Airfield :







YOU CAN JOIN US ON...

 
LOGIN :

Register | Disclaimer

   EN    FR    IT 

 









Legend :    VFR   Marginal VFR   IFR   Intensive IFR   Very Intensive IFR
Visi :
Ceiling :
>= 8 km
>= 3000ft
5 to 8 km
1000 to 3000 ft
1500m to 5 km
500 to 1000 ft
800 to 1500m
200 to 500 ft
< 800m
< 200 ft
Symbols :   Thunderstorms  Fog  Heavy snow  Heavy precipitations  Wind > 20 kt






- Airport Elevation : 8 ft
- IATA code : IFJ


BIIS - Ísafjörður

CURRENT METAR :
  • 151400Z 06005KT CAVOK 14/08 Q1011

EXPIRED METARs :
  • 151300Z 06008KT CAVOK 15/08 Q1012
  • 151200Z 05008KT 9999 SCT060 14/08 Q1011
  • 151100Z 05007KT 9999 SCT060 13/08 Q1012
  • 150949Z 07006KT 9999 BKN060 13/08 Q1012

TAF TAF BIIS
Valid from the 15 at 14:00 until the 15 at 20:00 UTC


151302Z 1514/1520 05006KT CAVOK



MET'MAP, your aeronautical weather chart ! - Copyright ORBIFLY December 2007 - Disclaimer

ORBIFLY MET'MAP TEAM :

Programming & Development : Alexandra Zaïnal
Original concept : Baudouin d'Aumeries
Technical & hardware support : Manuel Goepfert
Assistance : Marc-Olivier Méhu




SOURCES & CREDITS :

   NOAA